createdAt,value
2023-01-13T00:01:38.692Z,5.90
2023-01-13T00:04:08.475Z,5.47
2023-01-13T00:06:37.981Z,5.83
2023-01-13T00:09:07.483Z,7.43
2023-01-13T00:11:36.934Z,5.33
2023-01-13T00:14:06.489Z,3.80
2023-01-13T00:16:36.005Z,8.53
2023-01-13T00:19:06.993Z,7.30
2023-01-13T00:21:36.907Z,6.47
2023-01-13T00:24:06.557Z,6.60
2023-01-13T00:26:36.309Z,8.40
2023-01-13T00:29:05.965Z,12.27
2023-01-13T00:31:35.515Z,7.63
2023-01-13T00:34:07.245Z,7.87
2023-01-13T00:36:36.696Z,6.43
2023-01-13T00:39:06.198Z,7.10
2023-01-13T00:41:49.469Z,8.87
2023-01-13T00:44:18.869Z,8.37
2023-01-13T00:46:48.659Z,8.03
2023-01-13T00:49:19.715Z,6.03
2023-01-13T00:51:49.229Z,6.80
2023-01-13T00:54:18.861Z,9.20
2023-01-13T00:56:48.334Z,5.67
2023-01-13T00:59:19.065Z,6.47
2023-01-13T01:01:48.687Z,7.30
2023-01-13T01:04:19.608Z,4.20
2023-01-13T01:06:49.209Z,3.90
2023-01-13T01:09:19.334Z,5.33
2023-01-13T01:11:48.853Z,4.57
2023-01-13T01:14:18.340Z,10.63
2023-01-13T01:16:48.025Z,8.17
2023-01-13T01:19:18.874Z,6.50
2023-01-13T01:21:49.536Z,10.73
2023-01-13T01:24:18.753Z,7.27
2023-01-13T01:26:48.197Z,8.80
2023-01-13T01:29:17.457Z,4.93
2023-01-13T01:31:46.921Z,8.10
2023-01-13T01:34:16.237Z,9.37
2023-01-13T01:36:45.534Z,14.73
2023-01-13T01:39:16.166Z,10.57
2023-01-13T01:42:06.139Z,5.63
2023-01-13T01:45:01.110Z,7.53
2023-01-13T01:47:33.634Z,4.53
2023-01-13T01:50:03.612Z,5.83
2023-01-13T01:52:34.456Z,9.87
2023-01-13T01:55:07.652Z,5.90
2023-01-13T01:57:41.834Z,4.53
2023-01-13T02:00:12.075Z,6.63
2023-01-13T02:02:42.146Z,8.60
2023-01-13T02:05:11.817Z,5.47
2023-01-13T02:07:42.998Z,5.97
2023-01-13T02:10:14.976Z,13.67
2023-01-13T02:12:45.316Z,6.40
2023-01-13T02:15:16.323Z,8.57
2023-01-13T02:18:02.950Z,9.07
2023-01-13T02:20:45.277Z,10.10
2023-01-13T02:23:46.482Z,8.20
2023-01-13T02:26:28.067Z,7.30
2023-01-13T02:29:27.022Z,5.17
2023-01-13T02:32:02.304Z,7.57
2023-01-13T02:34:35.576Z,11.37
2023-01-13T02:37:06.797Z,4.90
2023-01-13T02:39:37.830Z,4.50
2023-01-13T02:42:23.360Z,7.87
2023-01-13T02:44:55.317Z,7.63
2023-01-13T02:47:27.547Z,10.77
2023-01-13T02:49:58.323Z,7.87
2023-01-13T02:52:30.443Z,5.83
2023-01-13T02:55:02.781Z,7.53
2023-01-13T02:57:33.915Z,10.93
2023-01-13T03:00:03.663Z,7.43
2023-01-13T03:02:34.389Z,9.80
2023-01-13T03:05:03.759Z,7.90
2023-01-13T03:07:47.703Z,9.43
2023-01-13T03:10:24.438Z,7.70
2023-01-13T03:12:57.414Z,9.80
2023-01-13T03:15:29.598Z,9.20
2023-01-13T03:18:04.101Z,5.60
2023-01-13T03:20:36.991Z,4.43
2023-01-13T03:23:08.856Z,5.20
2023-01-13T03:25:39.713Z,8.13
2023-01-13T03:28:11.344Z,7.27
2023-01-13T03:30:44.165Z,8.67
2023-01-13T03:33:17.983Z,4.37
2023-01-13T03:35:48.260Z,11.10
2023-01-13T03:38:19.626Z,5.53
2023-01-13T03:40:52.060Z,5.17
2023-01-13T03:43:42.354Z,7.40
2023-01-13T03:46:14.290Z,5.30
2023-01-13T03:48:45.704Z,7.73
2023-01-13T03:51:17.330Z,7.67
2023-01-13T03:53:49.684Z,9.40
2023-01-13T03:56:19.834Z,11.53
2023-01-13T03:58:50.394Z,7.37
2023-01-13T04:01:22.413Z,7.43
2023-01-13T04:03:56.689Z,5.30
2023-01-13T04:06:27.744Z,5.27
2023-01-13T04:08:58.714Z,8.17
2023-01-13T04:11:30.455Z,8.70
2023-01-13T04:13:59.768Z,8.57
2023-01-13T04:16:28.966Z,8.13
2023-01-13T04:18:59.716Z,9.70
2023-01-13T04:21:29.147Z,7.17
2023-01-13T04:23:58.456Z,6.10
2023-01-13T04:26:27.612Z,5.13
2023-01-13T04:28:56.983Z,10.10
2023-01-13T04:31:26.225Z,6.93
2023-01-13T04:33:55.489Z,5.83
2023-01-13T04:36:27.862Z,7.37
2023-01-13T04:38:57.321Z,9.20
2023-01-13T04:41:26.584Z,10.80
2023-01-13T04:43:55.919Z,8.50
2023-01-13T04:46:25.125Z,10.90
2023-01-13T04:48:54.584Z,13.83
2023-01-13T04:51:25.511Z,10.57
2023-01-13T04:53:55.329Z,11.63
2023-01-13T04:56:24.503Z,10.03
2023-01-13T04:58:53.848Z,7.67
2023-01-13T05:01:23.102Z,7.40
2023-01-13T05:03:52.371Z,8.83
2023-01-13T05:06:21.550Z,7.53
2023-01-13T05:08:52.541Z,9.40
2023-01-13T05:11:39.159Z,9.73
2023-01-13T05:14:26.066Z,6.40
2023-01-13T05:17:01.985Z,6.23
2023-01-13T05:19:31.794Z,6.70
2023-01-13T05:22:18.692Z,7.60
2023-01-13T05:25:06.888Z,6.30
2023-01-13T05:27:36.227Z,5.73
2023-01-13T05:30:05.736Z,9.53
2023-01-13T05:32:34.996Z,12.07
2023-01-13T05:35:04.375Z,7.87
2023-01-13T05:37:33.587Z,9.40
2023-01-13T05:40:21.946Z,7.83
2023-01-13T05:43:19.719Z,9.90
2023-01-13T05:45:49.311Z,8.93
2023-01-13T05:48:19.223Z,7.73
2023-01-13T05:50:49.430Z,8.63
2023-01-13T05:53:19.149Z,8.07
2023-01-13T05:55:50.036Z,7.40
2023-01-13T05:58:20.313Z,10.27
2023-01-13T06:03:43.744Z,8.87
2023-01-13T06:06:12.902Z,6.30
2023-01-13T06:08:42.284Z,8.33
2023-01-13T06:11:13.283Z,10.27
2023-01-13T06:13:42.681Z,7.10
2023-01-13T06:16:12.559Z,7.13
2023-01-13T06:18:41.993Z,7.10
2023-01-13T06:21:11.173Z,6.60
2023-01-13T06:23:40.458Z,7.70
2023-01-13T06:26:13.925Z,9.67
2023-01-13T06:28:43.230Z,10.73
2023-01-13T06:31:12.592Z,7.73
2023-01-13T06:33:43.780Z,7.70
2023-01-13T06:36:15.038Z,10.23
2023-01-13T06:38:46.528Z,7.67
2023-01-13T06:41:17.631Z,6.57
2023-01-13T06:43:46.838Z,8.73
2023-01-13T06:46:16.164Z,14.70
2023-01-13T06:48:45.911Z,9.83
2023-01-13T06:51:15.112Z,5.47
2023-01-13T06:53:44.481Z,10.37
2023-01-13T06:56:13.831Z,7.73
2023-01-13T06:58:44.765Z,9.30
2023-01-13T07:01:14.049Z,8.70
2023-01-13T07:03:43.369Z,9.47
2023-01-13T07:06:12.522Z,12.70
2023-01-13T07:08:41.869Z,10.27
2023-01-13T07:11:11.115Z,9.20
2023-01-13T07:13:58.006Z,11.60
2023-01-13T07:16:28.688Z,14.70
2023-01-13T07:18:58.004Z,8.00
2023-01-13T07:21:27.316Z,12.93
2023-01-13T07:23:56.785Z,10.03
2023-01-13T07:26:26.110Z,10.43
2023-01-13T07:28:55.433Z,9.60
2023-01-13T07:31:26.150Z,10.33
2023-01-13T07:33:56.987Z,11.30
2023-01-13T07:36:26.365Z,18.07
2023-01-13T07:38:56.947Z,10.03
2023-01-13T07:41:43.895Z,16.97
2023-01-13T07:44:13.424Z,8.50
2023-01-13T07:46:42.797Z,16.70
2023-01-13T07:49:13.796Z,22.50
2023-01-13T07:51:43.128Z,14.50
2023-01-13T07:54:12.456Z,6.23
2023-01-13T07:56:42.103Z,8.73
2023-01-13T07:59:11.332Z,26.77
2023-01-13T08:01:40.661Z,20.03
2023-01-13T08:04:09.983Z,18.63
2023-01-13T08:06:41.643Z,13.03
2023-01-13T08:09:10.924Z,7.07
2023-01-13T08:11:40.209Z,12.30
2023-01-13T08:14:09.410Z,23.23
2023-01-13T08:16:38.665Z,18.97
2023-01-13T08:19:08.049Z,11.50
2023-01-13T08:21:37.378Z,15.37
2023-01-13T08:24:08.516Z,17.00
2023-01-13T08:26:37.787Z,13.30
2023-01-13T08:29:07.061Z,11.47
2023-01-13T08:31:36.568Z,14.93
2023-01-13T08:34:05.868Z,9.00
2023-01-13T08:36:35.094Z,17.00
2023-01-13T08:39:04.457Z,13.37
2023-01-13T08:41:52.462Z,11.87
2023-01-13T08:44:21.685Z,12.93
2023-01-13T08:46:50.954Z,15.27
2023-01-13T08:49:20.542Z,8.97
2023-01-13T08:51:49.739Z,12.37
2023-01-13T08:54:19.191Z,13.83
2023-01-13T08:56:49.926Z,24.83
2023-01-13T08:59:21.406Z,10.17
2023-01-13T09:01:50.794Z,13.60
2023-01-13T09:04:21.300Z,12.50
2023-01-13T09:06:50.853Z,11.17
2023-01-13T09:09:20.181Z,10.10
2023-01-13T09:12:09.480Z,7.40
2023-01-13T09:14:40.051Z,6.50
2023-01-13T09:17:09.435Z,16.07
2023-01-13T09:19:38.805Z,12.60
2023-01-13T09:22:08.033Z,15.90
2023-01-13T09:24:37.424Z,14.00
2023-01-13T09:27:08.171Z,14.27
2023-01-13T09:29:37.371Z,10.77
2023-01-13T09:32:06.947Z,12.27
2023-01-13T09:34:53.763Z,10.80
2023-01-13T09:37:23.086Z,9.50
2023-01-13T09:39:52.284Z,15.03
2023-01-13T09:42:43.887Z,11.17
2023-01-13T09:45:15.092Z,12.83
2023-01-13T09:47:48.021Z,15.43
2023-01-13T09:50:24.303Z,12.40
2023-01-13T09:52:54.076Z,12.00
2023-01-13T09:55:27.579Z,10.37
2023-01-13T09:57:58.445Z,11.50
2023-01-13T10:00:29.726Z,9.77
2023-01-13T10:03:09.603Z,16.13
2023-01-13T10:05:40.213Z,26.77
2023-01-13T10:08:13.716Z,11.10
2023-01-13T10:10:45.147Z,14.37
2023-01-13T10:13:20.357Z,18.43
2023-01-13T10:15:58.844Z,14.93
2023-01-13T10:18:32.471Z,17.70
2023-01-13T10:21:04.733Z,18.17
2023-01-13T10:23:51.696Z,13.60
2023-01-13T10:26:28.127Z,19.83
2023-01-13T10:28:59.479Z,12.53
2023-01-13T10:31:28.958Z,10.67
2023-01-13T10:34:02.055Z,10.63
2023-01-13T10:36:31.304Z,10.10
2023-01-13T10:39:10.632Z,13.50
2023-01-13T10:41:39.869Z,9.60
2023-01-13T10:44:17.065Z,11.70
2023-01-13T10:46:54.152Z,9.80
2023-01-13T10:49:28.070Z,9.57
2023-01-13T10:51:57.393Z,7.90
2023-01-13T10:54:27.436Z,10.40
2023-01-13T10:57:17.394Z,8.50
2023-01-13T10:59:49.258Z,7.20
2023-01-13T11:02:26.179Z,15.93
2023-01-13T11:05:04.803Z,9.13
2023-01-13T11:07:36.223Z,19.73
2023-01-13T11:10:08.795Z,17.10
2023-01-13T11:12:41.429Z,10.43
2023-01-13T11:15:14.109Z,13.70
2023-01-13T11:17:45.693Z,8.83
2023-01-13T11:20:18.255Z,9.80
2023-01-13T11:22:48.636Z,10.40
2023-01-13T11:25:20.151Z,14.80
2023-01-13T11:27:52.603Z,10.20
2023-01-13T11:30:29.815Z,11.37
2023-01-13T11:33:06.244Z,11.33
2023-01-13T11:35:37.770Z,8.90
2023-01-13T11:38:13.208Z,18.00
2023-01-13T11:40:44.791Z,88.23
2023-01-13T11:43:19.633Z,28.30
2023-01-13T11:45:53.739Z,10.63
2023-01-13T11:48:27.074Z,17.57
2023-01-13T11:50:59.388Z,10.93
2023-01-13T11:53:35.522Z,6.13
2023-01-13T11:56:14.696Z,9.33
2023-01-13T11:58:54.929Z,31.83
2023-01-13T12:01:36.129Z,13.20
2023-01-13T12:04:19.385Z,16.60
2023-01-13T12:06:49.786Z,19.50
2023-01-13T12:09:35.563Z,14.63
2023-01-13T12:12:27.575Z,22.10
2023-01-13T12:15:05.656Z,13.70
2023-01-13T12:17:40.358Z,23.00
2023-01-13T12:20:18.288Z,17.20
2023-01-13T12:22:48.609Z,17.47
2023-01-13T12:25:22.623Z,15.60
2023-01-13T12:27:53.890Z,13.17
2023-01-13T12:30:25.908Z,14.30
2023-01-13T12:32:59.486Z,13.70
2023-01-13T12:35:34.588Z,13.23
2023-01-13T12:38:06.593Z,12.07
2023-01-13T12:40:47.119Z,15.47
2023-01-13T12:43:37.139Z,12.77
2023-01-13T12:46:25.053Z,16.30
2023-01-13T12:49:15.384Z,11.70
2023-01-13T12:52:00.518Z,15.70
2023-01-13T12:54:56.363Z,11.30
2023-01-13T12:57:26.291Z,9.37
2023-01-13T13:00:10.621Z,11.57
2023-01-13T13:02:40.460Z,10.23
2023-01-13T13:05:28.377Z,10.07
2023-01-13T13:08:05.848Z,18.60
2023-01-13T13:10:38.695Z,11.17
2023-01-13T13:13:20.035Z,14.43
2023-01-13T13:15:49.885Z,12.53
2023-01-13T13:18:25.304Z,14.70
2023-01-13T13:20:55.979Z,12.30
2023-01-13T13:23:48.295Z,17.57
2023-01-13T13:26:24.023Z,13.27
2023-01-13T13:28:59.361Z,9.63
2023-01-13T13:31:37.146Z,0.90
2023-01-13T13:34:19.594Z,13.87
2023-01-13T13:37:00.665Z,19.07
2023-01-13T13:39:48.572Z,11.40
2023-01-13T13:42:50.913Z,13.53
2023-01-13T13:45:44.235Z,13.07
2023-01-13T13:48:25.972Z,11.80
2023-01-13T13:50:58.410Z,15.33
2023-01-13T13:53:29.282Z,12.77
2023-01-13T13:56:00.054Z,14.40
2023-01-13T13:58:32.170Z,12.07
2023-01-13T14:01:02.343Z,13.60
2023-01-13T14:03:32.698Z,9.63
2023-01-13T14:06:03.237Z,10.60
2023-01-13T14:08:33.342Z,13.30
2023-01-13T14:11:02.564Z,10.17
2023-01-13T14:13:34.204Z,18.33
2023-01-13T14:16:04.231Z,13.00
2023-01-13T14:18:35.056Z,14.03
2023-01-13T14:21:06.203Z,23.87
2023-01-13T14:23:36.145Z,10.00
2023-01-13T14:26:09.226Z,9.27
2023-01-13T14:28:40.511Z,12.57
2023-01-13T14:31:10.770Z,11.43
2023-01-13T14:33:40.933Z,12.47
2023-01-13T14:36:15.270Z,13.07
2023-01-13T14:38:45.586Z,18.53
2023-01-13T14:41:19.269Z,22.30
2023-01-13T14:43:50.618Z,13.00
2023-01-13T14:46:22.725Z,14.27
2023-01-13T14:48:52.639Z,20.10
2023-01-13T14:51:26.434Z,12.07
2023-01-13T14:53:56.106Z,22.07
2023-01-13T14:56:44.667Z,10.27
2023-01-13T14:59:32.612Z,22.37
2023-01-13T15:02:03.820Z,12.67
2023-01-13T15:04:39.589Z,23.13
2023-01-13T15:07:19.489Z,13.67
2023-01-13T15:09:49.808Z,18.83
2023-01-13T15:12:25.865Z,17.03
2023-01-13T15:14:56.857Z,19.80
2023-01-13T15:17:27.768Z,17.43
2023-01-13T15:19:56.999Z,13.57
2023-01-13T15:22:26.271Z,20.17
2023-01-13T15:24:56.199Z,19.97
2023-01-13T15:27:27.629Z,21.60
2023-01-13T15:29:56.934Z,23.33
2023-01-13T15:32:27.540Z,15.50
2023-01-13T15:34:56.886Z,14.00
2023-01-13T15:37:25.992Z,27.87
2023-01-13T15:39:55.278Z,22.13
2023-01-13T15:42:41.933Z,28.97
2023-01-13T15:45:29.402Z,26.90
2023-01-13T15:48:00.781Z,17.30
2023-01-13T15:50:31.566Z,20.80
2023-01-13T15:53:01.306Z,19.90
2023-01-13T15:55:30.624Z,19.00
2023-01-13T15:57:59.840Z,27.53
2023-01-13T16:00:29.323Z,19.60
2023-01-13T16:02:59.926Z,20.30
2023-01-13T16:05:31.430Z,25.20
2023-01-13T16:08:01.007Z,23.97
2023-01-13T16:10:30.713Z,18.20
2023-01-13T16:13:00.124Z,22.17
2023-01-13T16:15:29.412Z,25.93
2023-01-13T16:17:59.938Z,19.03
2023-01-13T16:20:30.942Z,19.83
2023-01-13T16:23:00.325Z,22.67
2023-01-13T16:25:29.493Z,26.80
2023-01-13T16:27:58.728Z,19.70
2023-01-13T16:30:29.052Z,23.57
2023-01-13T16:32:58.328Z,28.43
2023-01-13T16:35:28.857Z,15.77
2023-01-13T16:38:00.006Z,23.23
2023-01-13T16:40:31.316Z,17.97
2023-01-13T16:43:00.942Z,28.97
2023-01-13T16:45:30.189Z,22.80
2023-01-13T16:47:59.492Z,21.13
2023-01-13T16:50:33.868Z,24.47
2023-01-13T16:53:04.515Z,24.20
2023-01-13T16:55:33.875Z,26.87
2023-01-13T16:58:03.217Z,21.60
2023-01-13T17:00:32.677Z,23.20
2023-01-13T17:03:03.017Z,19.67
2023-01-13T17:05:32.303Z,31.97
2023-01-13T17:08:01.692Z,30.13
2023-01-13T17:10:32.678Z,39.23
2023-01-13T17:13:14.072Z,22.30
2023-01-13T17:15:45.158Z,26.97
2023-01-13T17:18:14.537Z,20.60
2023-01-13T17:20:43.743Z,26.33
2023-01-13T17:23:13.168Z,42.60
2023-01-13T17:25:43.884Z,26.90
2023-01-13T17:28:13.071Z,27.03
2023-01-13T17:30:45.490Z,20.10
2023-01-13T17:33:14.836Z,26.83
2023-01-13T17:35:44.027Z,23.27
2023-01-13T17:38:13.253Z,23.00
2023-01-13T17:40:43.855Z,28.50
2023-01-13T17:43:13.164Z,26.13
2023-01-13T17:45:43.158Z,27.83
2023-01-13T17:48:12.899Z,21.37
2023-01-13T17:50:42.532Z,24.60
2023-01-13T17:53:11.909Z,35.70
2023-01-13T17:55:41.268Z,24.10
2023-01-13T17:58:12.080Z,34.03
2023-01-13T18:00:41.472Z,20.83
2023-01-13T18:03:12.347Z,25.97
2023-01-13T18:05:42.380Z,25.57
2023-01-13T18:08:12.171Z,26.80
2023-01-13T18:10:41.501Z,23.50
2023-01-13T18:13:12.484Z,23.27
2023-01-13T18:15:41.835Z,21.93
2023-01-13T18:18:11.028Z,21.20
2023-01-13T18:20:57.964Z,29.53
2023-01-13T18:23:44.862Z,25.10
2023-01-13T18:26:34.389Z,27.73
2023-01-13T18:29:05.668Z,25.47
2023-01-13T18:31:35.461Z,31.03
2023-01-13T18:34:04.788Z,32.33
2023-01-13T18:36:33.998Z,22.73
2023-01-13T18:39:03.610Z,32.13
2023-01-13T18:41:50.059Z,29.37
2023-01-13T18:44:22.344Z,23.27
2023-01-13T18:46:51.919Z,25.93
2023-01-13T18:49:21.161Z,22.57
2023-01-13T18:51:50.530Z,24.27
2023-01-13T18:54:20.478Z,23.77
2023-01-13T18:56:50.439Z,20.80
2023-01-13T18:59:19.777Z,27.63
2023-01-13T19:01:50.675Z,24.17
2023-01-13T19:04:20.092Z,25.67
2023-01-13T19:06:51.839Z,28.13
2023-01-13T19:09:24.839Z,26.27
2023-01-13T19:11:55.046Z,20.90
2023-01-13T19:14:37.810Z,27.63
2023-01-13T19:17:10.427Z,32.80
2023-01-13T19:19:43.927Z,30.27
2023-01-13T19:22:14.113Z,32.07
2023-01-13T19:24:43.315Z,24.87
2023-01-13T19:27:14.513Z,30.37
2023-01-13T19:29:52.080Z,27.90
2023-01-13T19:32:23.843Z,27.17
2023-01-13T19:34:55.170Z,27.57
2023-01-13T19:37:30.125Z,31.57
2023-01-13T19:39:59.999Z,38.57
2023-01-13T19:42:46.650Z,33.63
2023-01-13T19:45:30.835Z,40.27
2023-01-13T19:48:05.192Z,26.37
2023-01-13T19:50:38.626Z,29.00
2023-01-13T19:53:08.161Z,24.67
2023-01-13T19:55:37.677Z,24.50
2023-01-13T19:58:08.356Z,28.40
2023-01-13T20:00:37.717Z,23.53
2023-01-13T20:03:10.934Z,43.23
2023-01-13T20:05:40.791Z,32.80
2023-01-13T20:08:10.334Z,30.53
2023-01-13T20:10:40.693Z,28.93
2023-01-13T20:13:09.946Z,33.73
2023-01-13T20:15:39.852Z,25.57
2023-01-13T20:18:11.416Z,27.03
2023-01-13T20:20:40.810Z,30.03
2023-01-13T20:23:10.019Z,31.13
2023-01-13T20:25:39.384Z,31.60
2023-01-13T20:28:08.592Z,30.10
2023-01-13T20:30:37.839Z,28.00
2023-01-13T20:33:07.197Z,32.27
2023-01-13T20:35:37.910Z,28.23
2023-01-13T20:38:07.265Z,36.87
2023-01-13T20:40:36.749Z,37.30
2023-01-13T20:43:05.577Z,36.50
2023-01-13T20:45:34.737Z,36.83
2023-01-13T20:48:03.939Z,42.97
2023-01-13T20:50:33.145Z,29.53
2023-01-13T20:53:03.826Z,39.03
2023-01-13T20:55:33.085Z,32.13
2023-01-13T20:58:02.644Z,45.50
2023-01-13T21:00:31.891Z,31.03
2023-01-13T21:03:01.163Z,33.57
2023-01-13T21:05:30.340Z,28.47
2023-01-13T21:07:59.849Z,51.43
2023-01-13T21:10:30.637Z,38.20
2023-01-13T21:13:13.579Z,36.73
2023-01-13T21:15:43.024Z,43.33
2023-01-13T21:18:29.912Z,77.77
2023-01-13T21:21:11.851Z,95.67
2023-01-13T21:23:41.420Z,43.17
2023-01-13T21:26:12.454Z,37.20
2023-01-13T21:28:41.743Z,32.23
2023-01-13T21:31:12.073Z,36.00
2023-01-13T21:33:41.636Z,29.40
2023-01-13T21:36:11.494Z,31.53
2023-01-13T21:38:40.782Z,26.10
2023-01-13T21:41:14.570Z,25.90
2023-01-13T21:44:01.577Z,28.47
2023-01-13T21:46:48.076Z,32.40
2023-01-13T21:49:17.402Z,35.40
2023-01-13T21:51:46.671Z,33.43
2023-01-13T21:54:16.130Z,26.90
2023-01-13T21:56:47.910Z,29.20
2023-01-13T21:59:17.292Z,33.07
2023-01-13T22:02:23.205Z,28.17
2023-01-13T22:04:35.967Z,29.00
2023-01-13T22:07:06.697Z,28.40
2023-01-13T22:09:36.154Z,24.23
2023-01-13T22:12:07.125Z,34.27
2023-01-13T22:14:36.726Z,34.67
2023-01-13T22:17:05.979Z,25.00
2023-01-13T22:19:39.363Z,26.93
2023-01-13T22:22:13.299Z,28.70
2023-01-13T22:24:43.853Z,26.67
2023-01-13T22:27:15.104Z,23.17
2023-01-13T22:29:44.649Z,25.00
2023-01-13T22:32:13.873Z,30.10
2023-01-13T22:34:43.131Z,23.13
2023-01-13T22:37:12.605Z,25.17
2023-01-13T22:39:42.090Z,19.70
2023-01-13T22:42:11.889Z,23.53
2023-01-13T22:44:42.833Z,21.50
2023-01-13T22:47:12.207Z,22.90
2023-01-13T22:49:42.213Z,23.97
2023-01-13T22:52:11.601Z,20.63
2023-01-13T22:54:40.775Z,28.97
2023-01-13T22:57:10.511Z,19.60
2023-01-13T22:59:39.749Z,24.23
2023-01-13T23:02:10.391Z,26.23
2023-01-13T23:04:39.859Z,19.40
2023-01-13T23:07:09.183Z,20.50
2023-01-13T23:09:38.553Z,20.50
2023-01-13T23:12:08.081Z,21.43
2023-01-13T23:14:37.605Z,21.07
2023-01-13T23:17:07.203Z,26.30
2023-01-13T23:19:37.863Z,19.20
2023-01-13T23:22:07.230Z,16.90
2023-01-13T23:24:36.486Z,25.77
2023-01-13T23:27:06.005Z,23.43
2023-01-13T23:29:35.382Z,21.10
2023-01-13T23:32:04.740Z,22.80
2023-01-13T23:34:34.147Z,32.93
2023-01-13T23:37:04.878Z,26.63
2023-01-13T23:39:34.385Z,24.53
2023-01-13T23:42:03.636Z,34.33
2023-01-13T23:44:33.071Z,26.37
2023-01-13T23:47:02.215Z,19.97
2023-01-13T23:49:31.818Z,26.63
2023-01-13T23:52:01.190Z,20.37
2023-01-13T23:54:31.952Z,22.40
2023-01-13T23:57:01.324Z,22.33
2023-01-13T23:59:30.489Z,25.47
